createdAt,value
2019-02-26T00:00:36.777Z,1.42
2019-02-26T00:03:05.282Z,1.42
2019-02-26T00:05:33.779Z,1.35
2019-02-26T00:08:02.589Z,1.35
2019-02-26T00:10:32.315Z,1.33
2019-02-26T00:13:01.518Z,1.35
2019-02-26T00:15:33.355Z,1.32
2019-02-26T00:18:00.236Z,1.45
2019-02-26T00:20:31.280Z,1.42
2019-02-26T00:22:59.855Z,1.42
2019-02-26T00:25:29.265Z,1.09
2019-02-26T00:27:58.651Z,1.02
2019-02-26T00:30:27.376Z,1.02
2019-02-26T00:32:57.711Z,1.03
2019-02-26T00:35:27.616Z,1.15
2019-02-26T00:37:56.277Z,1.15
2019-02-26T00:40:24.779Z,1.43
2019-02-26T00:42:56.524Z,1.43
2019-02-26T00:45:26.895Z,1.22
2019-02-26T00:47:53.779Z,1.09
2019-02-26T00:50:22.285Z,1.13
2019-02-26T00:52:52.361Z,1.13
2019-02-26T00:55:23.137Z,1.12
2019-02-26T00:57:51.289Z,1.00
2019-02-26T01:00:19.792Z,0.98
2019-02-26T01:02:48.288Z,0.98
2019-02-26T01:05:16.898Z,0.96
2019-02-26T01:07:47.416Z,0.95
2019-02-26T01:10:16.414Z,1.20
2019-02-26T01:12:45.880Z,1.20
2019-02-26T01:15:19.155Z,1.51
2019-02-26T01:17:47.659Z,1.50
2019-02-26T01:20:19.314Z,1.28
2019-02-26T01:22:47.599Z,1.07
2019-02-26T01:25:18.498Z,0.95
2019-02-26T01:27:48.288Z,0.95
2019-02-26T01:30:20.743Z,1.04
2019-02-26T01:32:46.928Z,1.19
2019-02-26T01:35:15.441Z,1.23
2019-02-26T01:37:43.969Z,1.42
2019-02-26T01:40:15.826Z,1.35
2019-02-26T01:42:47.252Z,1.35
2019-02-26T01:45:13.824Z,1.24
2019-02-26T01:47:44.906Z,1.15
2019-02-26T01:50:13.967Z,1.25
2019-02-26T01:52:43.412Z,1.03
2019-02-26T01:55:12.307Z,1.03
2019-02-26T01:57:43.438Z,1.13
2019-02-26T02:00:16.598Z,1.15
2019-02-26T02:02:45.122Z,1.04
2019-02-26T02:05:13.651Z,0.98
2019-02-26T02:07:44.223Z,0.98
2019-02-26T02:10:15.124Z,0.88
2019-02-26T02:12:43.629Z,0.69
2019-02-26T02:15:18.239Z,0.75
2019-02-26T02:17:46.008Z,0.81
2019-02-26T02:20:20.823Z,0.87
2019-02-26T02:22:47.817Z,0.87
2019-02-26T02:25:16.325Z,0.92
2019-02-26T02:27:47.714Z,0.76
2019-02-26T02:30:22.402Z,0.71
2019-02-26T02:32:50.409Z,0.80
2019-02-26T02:35:19.102Z,0.64
2019-02-26T02:37:47.074Z,0.51
2019-02-26T02:40:15.587Z,0.55
2019-02-26T02:42:48.443Z,0.51
2019-02-26T02:45:16.983Z,0.55
2019-02-26T02:47:44.552Z,0.49
2019-02-26T02:50:15.074Z,0.53
2019-02-26T02:52:44.166Z,0.54
2019-02-26T02:55:15.635Z,0.49
2019-02-26T02:57:42.920Z,0.55
2019-02-26T03:00:16.102Z,0.42
2019-02-26T03:02:46.484Z,0.42
2019-02-26T03:05:14.834Z,0.55
2019-02-26T03:07:46.088Z,0.48
2019-02-26T03:10:15.205Z,0.55
2019-02-26T03:12:47.663Z,0.63
2019-02-26T03:15:15.071Z,0.48
2019-02-26T03:17:43.571Z,0.40
2019-02-26T03:20:15.149Z,0.58
2019-02-26T03:22:48.307Z,0.60
2019-02-26T03:25:20.977Z,0.59
2019-02-26T03:27:48.035Z,0.45
2019-02-26T03:30:27.461Z,0.44
2019-02-26T03:32:58.644Z,0.46
2019-02-26T03:35:23.804Z,0.34
2019-02-26T03:37:55.628Z,0.20
2019-02-26T03:40:24.097Z,0.31
2019-02-26T03:42:52.968Z,0.33
2019-02-26T03:45:24.723Z,0.24
2019-02-26T03:47:51.770Z,0.16
2019-02-26T03:50:20.258Z,0.15
2019-02-26T03:52:48.777Z,0.07
2019-02-26T03:55:18.934Z,0.09
2019-02-26T03:57:50.579Z,0.25
2019-02-26T04:00:19.854Z,0.21
2019-02-26T04:02:51.281Z,0.16
2019-02-26T04:05:18.933Z,0.09
2019-02-26T04:07:49.845Z,0.08
2019-02-26T04:10:17.679Z,0.09
2019-02-26T04:12:48.715Z,0.06
2019-02-26T04:15:17.455Z,-0.15
2019-02-26T04:17:45.950Z,-0.21
2019-02-26T04:20:15.258Z,-0.17
2019-02-26T04:22:49.029Z,-0.18
2019-02-26T04:25:33.958Z,-0.27
2019-02-26T04:28:10.838Z,-0.27
2019-02-26T04:30:56.980Z,-0.23
2019-02-26T04:33:49.630Z,-0.20
2019-02-26T04:36:27.342Z,-0.18
2019-02-26T04:39:16.366Z,-0.20
2019-02-26T04:42:09.436Z,-0.25
2019-02-26T04:44:58.114Z,0.03
2019-02-26T04:47:30.782Z,-0.04
2019-02-26T04:50:00.501Z,-0.17
2019-02-26T04:52:29.581Z,-0.23
2019-02-26T04:54:59.122Z,-0.36
2019-02-26T04:57:27.702Z,-0.09
2019-02-26T04:59:58.377Z,-0.16
2019-02-26T05:02:26.436Z,-0.19
2019-02-26T05:04:54.942Z,-0.10
2019-02-26T05:07:23.467Z,-0.09
2019-02-26T05:09:53.797Z,-0.05
2019-02-26T05:12:25.111Z,-0.08
2019-02-26T05:14:52.487Z,-0.04
2019-02-26T05:17:23.795Z,0.03
2019-02-26T05:19:51.852Z,0.03
2019-02-26T05:22:24.870Z,-0.04
2019-02-26T05:24:52.898Z,0.03
2019-02-26T05:27:22.750Z,0.15
2019-02-26T05:29:54.542Z,0.14
2019-02-26T05:32:26.557Z,0.14
2019-02-26T05:34:52.328Z,0.26
2019-02-26T05:37:20.825Z,0.32
2019-02-26T05:39:51.705Z,0.44
2019-02-26T05:42:19.567Z,0.72
2019-02-26T05:44:48.073Z,0.81
2019-02-26T05:47:18.671Z,0.89
2019-02-26T05:49:46.854Z,1.26
2019-02-26T05:52:15.428Z,1.26
2019-02-26T05:54:43.944Z,1.33
2019-02-26T05:57:27.196Z,1.33
2019-02-26T05:59:42.768Z,1.27
2019-02-26T06:02:13.409Z,1.34
2019-02-26T06:04:43.874Z,1.47
2019-02-26T06:07:11.749Z,1.28
2019-02-26T06:09:40.243Z,1.28
2019-02-26T06:12:08.803Z,1.43
2019-02-26T06:14:39.333Z,1.76
2019-02-26T06:17:09.698Z,1.75
2019-02-26T06:19:48.312Z,1.91
2019-02-26T06:22:18.214Z,2.04
2019-02-26T06:24:47.106Z,2.08
2019-02-26T06:27:18.309Z,2.07
2019-02-26T06:29:45.828Z,2.06
2019-02-26T06:32:16.139Z,2.15
2019-02-26T06:34:44.635Z,2.18
2019-02-26T06:37:16.632Z,2.33
2019-02-26T06:39:45.276Z,2.52
2019-02-26T06:42:14.512Z,2.34
2019-02-26T06:44:43.746Z,2.51
2019-02-26T06:47:13.396Z,2.62
2019-02-26T06:49:43.238Z,2.63
2019-02-26T06:52:13.125Z,2.65
2019-02-26T06:54:45.258Z,2.86
2019-02-26T06:57:12.636Z,2.88
2019-02-26T06:59:41.134Z,3.27
2019-02-26T07:02:11.034Z,3.20
2019-02-26T07:04:40.025Z,3.30
2019-02-26T07:07:12.190Z,3.40
2019-02-26T07:09:39.615Z,3.40
2019-02-26T07:12:08.974Z,3.59
2019-02-26T07:14:37.502Z,3.47
2019-02-26T07:17:05.974Z,3.66
2019-02-26T07:19:35.854Z,3.71
2019-02-26T07:22:05.417Z,3.74
2019-02-26T07:24:34.942Z,3.85
2019-02-26T07:27:04.301Z,4.01
2019-02-26T07:29:37.544Z,4.01
2019-02-26T07:32:03.927Z,4.19
2019-02-26T07:34:32.429Z,4.12
2019-02-26T07:37:00.945Z,4.05
2019-02-26T07:39:29.474Z,4.12
2019-02-26T07:41:57.971Z,4.09
2019-02-26T07:44:28.339Z,4.19
2019-02-26T07:46:58.436Z,4.31
2019-02-26T07:49:26.906Z,4.37
2019-02-26T07:51:57.411Z,4.41
2019-02-26T07:54:25.661Z,4.48
2019-02-26T07:56:55.116Z,4.50
2019-02-26T07:59:27.640Z,4.52
2019-02-26T08:01:54.635Z,4.51
2019-02-26T08:04:23.179Z,4.71
2019-02-26T08:06:52.416Z,4.70
2019-02-26T08:09:23.624Z,4.85
2019-02-26T08:11:52.201Z,4.92
2019-02-26T08:14:21.374Z,4.89
2019-02-26T08:16:53.669Z,4.99
2019-02-26T08:19:21.225Z,5.09
2019-02-26T08:21:50.362Z,5.16
2019-02-26T08:24:23.840Z,5.24
2019-02-26T08:26:50.186Z,5.42
2019-02-26T08:29:18.732Z,5.53
2019-02-26T08:31:49.398Z,5.57
2019-02-26T08:34:17.458Z,5.62
2019-02-26T08:36:46.773Z,5.71
2019-02-26T08:39:15.878Z,5.77
2019-02-26T08:41:56.762Z,5.73
2019-02-26T08:44:25.248Z,5.72
2019-02-26T08:46:53.746Z,5.76
2019-02-26T08:49:22.607Z,5.92
2019-02-26T08:51:51.076Z,5.77
2019-02-26T08:54:21.113Z,5.94
2019-02-26T08:56:49.840Z,6.03
2019-02-26T08:59:20.099Z,6.25
2019-02-26T09:01:48.723Z,6.42
2019-02-26T09:04:19.175Z,6.50
2019-02-26T09:06:47.491Z,6.72
2019-02-26T09:09:15.990Z,6.67
2019-02-26T09:11:44.506Z,6.67
2019-02-26T09:14:14.233Z,6.68
2019-02-26T09:16:43.236Z,6.71
2019-02-26T09:19:11.770Z,6.74
2019-02-26T09:21:42.608Z,6.85
2019-02-26T09:24:16.863Z,6.98
2019-02-26T09:26:45.358Z,7.16
2019-02-26T09:30:06.728Z,7.27
2019-02-26T09:32:44.862Z,7.34
2019-02-26T09:35:16.919Z,7.33
2019-02-26T09:37:47.324Z,7.49
2019-02-26T09:43:06.117Z,7.60
2019-02-26T09:45:34.845Z,7.74
2019-02-26T09:48:03.414Z,7.54
2019-02-26T09:50:31.902Z,7.46
2019-02-26T09:53:00.391Z,7.36
2019-02-26T09:55:28.940Z,7.17
2019-02-26T09:57:57.446Z,7.43
2019-02-26T10:00:29.117Z,7.38
2019-02-26T10:02:56.208Z,7.61
2019-02-26T10:05:24.700Z,7.55
2019-02-26T10:07:54.980Z,7.56
2019-02-26T10:10:26.054Z,7.52
2019-02-26T10:12:56.467Z,7.64
2019-02-26T10:15:24.419Z,7.71
2019-02-26T10:17:52.942Z,7.91
2019-02-26T10:20:31.016Z,7.94
2019-02-26T10:23:00.748Z,8.29
2019-02-26T10:25:31.037Z,8.46
2019-02-26T10:28:03.084Z,8.48
2019-02-26T10:30:31.404Z,8.48
2019-02-26T10:33:01.839Z,8.60
2019-02-26T10:35:33.272Z,8.52
2019-02-26T10:38:02.827Z,8.41
2019-02-26T10:40:35.303Z,8.63
2019-02-26T10:43:00.192Z,8.85
2019-02-26T10:45:29.591Z,9.07
2019-02-26T10:47:59.429Z,9.05
2019-02-26T10:50:31.788Z,9.09
2019-02-26T10:53:06.951Z,9.19
2019-02-26T10:55:35.319Z,9.34
2019-02-26T10:58:03.587Z,9.48
2019-02-26T11:00:32.176Z,9.58
2019-02-26T11:03:00.359Z,9.69
2019-02-26T11:05:28.865Z,9.78
2019-02-26T11:07:59.708Z,9.97
2019-02-26T11:10:27.608Z,10.18
2019-02-26T11:12:58.554Z,10.26
2019-02-26T11:15:29.793Z,10.27
2019-02-26T11:17:56.635Z,10.32
2019-02-26T11:20:27.834Z,10.25
2019-02-26T11:22:55.372Z,9.80
2019-02-26T11:25:26.524Z,9.59
2019-02-26T11:27:54.135Z,9.50
2019-02-26T11:30:28.535Z,9.44
2019-02-26T11:32:58.633Z,9.40
2019-02-26T11:35:25.405Z,9.69
2019-02-26T11:37:55.441Z,9.89
2019-02-26T11:40:28.100Z,10.13
2019-02-26T11:42:55.756Z,10.38
2019-02-26T11:45:24.666Z,10.56
2019-02-26T11:47:55.177Z,10.62
2019-02-26T11:50:28.025Z,10.58
2019-02-26T11:52:55.041Z,10.66
2019-02-26T11:55:26.177Z,10.53
2019-02-26T11:57:53.993Z,10.47
2019-02-26T12:00:37.322Z,10.54
2019-02-26T12:03:04.986Z,10.45
2019-02-26T12:05:35.890Z,10.34
2019-02-26T12:08:03.723Z,10.29
2019-02-26T12:10:33.205Z,10.11
2019-02-26T12:13:02.487Z,10.09
2019-02-26T12:15:33.457Z,10.43
2019-02-26T12:18:01.264Z,10.55
2019-02-26T12:20:30.577Z,10.74
2019-02-26T12:22:59.127Z,10.80
2019-02-26T12:25:27.634Z,10.88
2019-02-26T12:27:56.195Z,10.91
2019-02-26T12:30:26.504Z,10.90
2019-02-26T12:32:55.261Z,11.14
2019-02-26T12:35:23.805Z,11.09
2019-02-26T12:37:53.899Z,11.19
2019-02-26T12:40:25.336Z,11.21
2019-02-26T12:42:52.804Z,11.11
2019-02-26T12:45:22.702Z,11.00
2019-02-26T12:47:53.093Z,10.79
2019-02-26T12:50:26.096Z,10.64
2019-02-26T12:52:53.837Z,10.72
2019-02-26T12:55:28.970Z,10.64
2019-02-26T12:57:56.340Z,10.65
2019-02-26T13:00:24.493Z,10.61
2019-02-26T13:02:52.991Z,10.54
2019-02-26T13:05:23.013Z,10.34
2019-02-26T13:07:51.814Z,10.38
2019-02-26T13:10:27.758Z,10.42
2019-02-26T13:13:00.026Z,10.40
2019-02-26T13:15:26.490Z,10.65
2019-02-26T13:17:54.993Z,10.72
2019-02-26T13:20:29.488Z,10.70
2019-02-26T13:23:16.470Z,10.79
2019-02-26T13:25:28.265Z,10.78
2019-02-26T13:27:56.776Z,10.77
2019-02-26T13:30:25.887Z,10.81
2019-02-26T13:32:59.792Z,10.88
2019-02-26T13:35:24.632Z,10.82
2019-02-26T13:37:55.429Z,10.75
2019-02-26T13:40:24.721Z,10.90
2019-02-26T13:45:24.660Z,10.75
2019-02-26T13:48:00.732Z,10.78
2019-02-26T13:50:28.843Z,10.81
2019-02-26T13:52:57.314Z,10.77
2019-02-26T13:55:25.822Z,10.97
2019-02-26T13:57:54.335Z,11.27
2019-02-26T14:00:26.223Z,11.28
2019-02-26T14:02:53.242Z,10.98
2019-02-26T14:05:21.747Z,10.97
2019-02-26T14:07:50.278Z,10.94
2019-02-26T14:10:20.939Z,10.84
2019-02-26T14:12:49.504Z,10.70
2019-02-26T14:15:23.762Z,10.86
2019-02-26T14:17:52.569Z,10.78
2019-02-26T14:20:21.553Z,10.85
2019-02-26T14:22:50.066Z,10.61
2019-02-26T14:25:18.664Z,10.50
2019-02-26T14:27:47.190Z,10.61
2019-02-26T14:30:21.078Z,10.45
2019-02-26T14:32:49.616Z,10.43
2019-02-26T14:35:18.121Z,10.40
2019-02-26T14:37:46.698Z,10.58
2019-02-26T14:40:18.662Z,10.74
2019-02-26T14:42:47.167Z,10.58
2019-02-26T14:45:24.069Z,10.43
2019-02-26T14:47:52.579Z,10.40
2019-02-26T14:50:22.232Z,10.42
2019-02-26T14:52:50.740Z,10.39
2019-02-26T14:55:19.247Z,10.38
2019-02-26T14:57:47.780Z,10.19
2019-02-26T15:00:29.839Z,10.25
2019-02-26T15:02:58.465Z,10.32
2019-02-26T15:05:26.967Z,10.31
2019-02-26T15:07:55.466Z,10.23
2019-02-26T15:10:24.005Z,10.23
2019-02-26T15:12:52.591Z,10.24
2019-02-26T15:15:21.171Z,10.19
2019-02-26T15:17:49.697Z,10.16
2019-02-26T15:20:20.272Z,10.07
2019-02-26T15:22:48.849Z,10.13
2019-02-26T15:25:24.917Z,10.11
2019-02-26T15:27:53.469Z,10.07
2019-02-26T15:30:22.398Z,10.00
2019-02-26T15:32:50.961Z,9.89
2019-02-26T15:35:19.484Z,9.72
2019-02-26T15:37:48.006Z,9.55
2019-02-26T15:40:20.085Z,9.41
2019-02-26T15:42:52.445Z,9.41
2019-02-26T15:45:28.880Z,9.23
2019-02-26T15:47:56.851Z,9.18
2019-02-26T15:50:25.356Z,9.08
2019-02-26T15:52:53.862Z,9.03
2019-02-26T15:55:32.149Z,8.92
2019-02-26T15:58:04.343Z,8.90
2019-02-26T16:00:30.915Z,8.81
2019-02-26T16:03:00.127Z,8.76
2019-02-26T16:05:33.931Z,8.73
2019-02-26T16:08:02.434Z,8.68
2019-02-26T16:10:30.973Z,8.64
2019-02-26T16:13:05.706Z,8.67
2019-02-26T16:15:38.762Z,8.62
2019-02-26T16:18:07.255Z,8.63
2019-02-26T16:20:35.759Z,8.64
2019-02-26T16:23:04.258Z,8.59
2019-02-26T16:25:32.758Z,8.62
2019-02-26T16:28:01.320Z,8.57
2019-02-26T16:30:29.938Z,8.52
2019-02-26T16:32:58.545Z,8.55
2019-02-26T16:35:27.064Z,8.50
2019-02-26T16:37:55.577Z,8.49
2019-02-26T16:40:24.120Z,8.46
2019-02-26T16:42:52.626Z,8.46
2019-02-26T16:45:22.809Z,8.49
2019-02-26T16:47:51.320Z,8.50
2019-02-26T16:50:22.588Z,8.44
2019-02-26T16:52:51.130Z,8.35
2019-02-26T16:55:20.243Z,8.26
2019-02-26T16:57:48.925Z,8.26
2019-02-26T17:00:30.551Z,8.14
2019-02-26T17:03:01.013Z,8.10
2019-02-26T17:05:29.343Z,8.01
2019-02-26T17:07:58.114Z,8.05
2019-02-26T17:10:30.214Z,7.84
2019-02-26T17:13:01.985Z,7.79
2019-02-26T17:15:32.790Z,7.69
2019-02-26T17:18:01.334Z,7.63
2019-02-26T17:20:29.836Z,7.66
2019-02-26T17:22:58.350Z,7.59
2019-02-26T17:25:28.465Z,7.59
2019-02-26T17:27:57.224Z,7.49
2019-02-26T17:30:25.720Z,7.55
2019-02-26T17:32:54.238Z,7.53
2019-02-26T17:35:22.721Z,7.33
2019-02-26T17:37:51.269Z,7.41
2019-02-26T17:40:21.747Z,7.36
2019-02-26T17:42:51.242Z,7.41
2019-02-26T17:45:25.805Z,7.55
2019-02-26T17:47:56.472Z,7.46
2019-02-26T17:50:30.756Z,7.54
2019-02-26T17:52:59.257Z,7.53
2019-02-26T17:55:27.833Z,7.49
2019-02-26T17:57:56.345Z,7.35
2019-02-26T18:00:27.049Z,7.39
2019-02-26T18:02:55.626Z,7.57
2019-02-26T18:05:24.118Z,7.61
2019-02-26T18:07:52.616Z,7.74
2019-02-26T18:10:22.949Z,7.64
2019-02-26T18:12:51.461Z,7.70
2019-02-26T18:15:20.831Z,7.70
2019-02-26T18:17:49.554Z,7.60
2019-02-26T18:20:19.397Z,7.62
2019-02-26T18:22:47.952Z,7.60
2019-02-26T18:25:18.935Z,7.52
2019-02-26T18:27:47.449Z,7.54
2019-02-26T18:30:21.388Z,7.45
2019-02-26T18:32:50.652Z,7.32
2019-02-26T18:35:20.192Z,7.14
2019-02-26T18:37:48.720Z,7.25
2019-02-26T18:40:17.924Z,7.12
2019-02-26T18:42:46.650Z,6.96
2019-02-26T18:45:27.910Z,6.84
2019-02-26T18:47:56.598Z,7.04
2019-02-26T18:50:25.907Z,7.16
2019-02-26T18:52:55.324Z,7.27
2019-02-26T18:55:27.935Z,6.97
2019-02-26T18:57:54.524Z,7.01
2019-02-26T19:00:29.351Z,6.89
2019-02-26T19:02:57.875Z,6.85
2019-02-26T19:05:26.384Z,6.87
2019-02-26T19:07:54.897Z,6.84
2019-02-26T19:10:23.404Z,6.88
2019-02-26T19:12:51.937Z,6.96
2019-02-26T19:15:35.911Z,6.88
2019-02-26T19:18:04.482Z,6.92
2019-02-26T19:20:35.267Z,7.06
2019-02-26T19:23:03.748Z,6.95
2019-02-26T19:25:32.254Z,6.98
2019-02-26T19:28:00.766Z,6.99
2019-02-26T19:30:29.380Z,6.93
2019-02-26T19:32:57.878Z,6.90
2019-02-26T19:35:26.376Z,6.83
2019-02-26T19:37:57.695Z,6.88
2019-02-26T19:40:44.058Z,6.76
2019-02-26T19:43:12.587Z,6.88
2019-02-26T19:45:43.818Z,6.83
2019-02-26T19:48:11.328Z,6.85
2019-02-26T19:50:39.840Z,6.85
2019-02-26T19:53:08.362Z,6.64
2019-02-26T19:55:39.697Z,6.60
2019-02-26T19:58:08.205Z,6.58
2019-02-26T20:00:36.815Z,6.56
2019-02-26T20:03:06.249Z,6.61
2019-02-26T20:05:34.931Z,6.69
2019-02-26T20:08:05.348Z,6.58
2019-02-26T20:10:33.686Z,6.52
2019-02-26T20:13:04.004Z,6.71
2019-02-26T20:15:32.412Z,6.80
2019-02-26T20:18:00.921Z,6.70
2019-02-26T20:20:29.469Z,6.62
2019-02-26T20:22:57.970Z,6.77
2019-02-26T20:25:26.475Z,6.78
2019-02-26T20:27:58.066Z,6.70
2019-02-26T20:30:25.217Z,6.57
2019-02-26T20:32:53.773Z,6.77
2019-02-26T20:35:22.323Z,6.62
2019-02-26T20:37:50.842Z,6.58
2019-02-26T20:40:21.712Z,6.59
2019-02-26T20:42:50.228Z,6.59
2019-02-26T20:45:19.477Z,6.58
2019-02-26T20:47:47.973Z,6.65
2019-02-26T20:50:19.993Z,6.62
2019-02-26T20:52:46.734Z,6.41
2019-02-26T20:55:19.125Z,6.37
2019-02-26T20:57:48.486Z,6.36
2019-02-26T21:00:18.591Z,6.38
2019-02-26T21:02:47.393Z,6.32
2019-02-26T21:05:15.907Z,6.36
2019-02-26T21:07:44.407Z,6.41
2019-02-26T21:10:17.642Z,6.43
2019-02-26T21:12:46.141Z,6.48
2019-02-26T21:15:19.979Z,6.37
2019-02-26T21:17:48.486Z,6.35
2019-02-26T21:20:16.987Z,6.38
2019-02-26T21:22:45.530Z,6.33
2019-02-26T21:25:14.453Z,6.31
2019-02-26T21:27:42.939Z,6.43
2019-02-26T21:30:19.837Z,6.35
2019-02-26T21:32:48.335Z,6.33
2019-02-26T21:35:20.067Z,6.47
2019-02-26T21:37:48.302Z,6.52
2019-02-26T21:40:17.171Z,6.34
2019-02-26T21:42:45.704Z,6.35
2019-02-26T21:45:17.874Z,6.29
2019-02-26T21:47:46.369Z,6.27
2019-02-26T21:50:15.579Z,6.28
2019-02-26T21:52:44.076Z,6.33
2019-02-26T21:55:13.612Z,6.33
2019-02-26T21:57:42.118Z,6.28
2019-02-26T22:00:20.286Z,6.30
2019-02-26T22:02:51.938Z,6.52
2019-02-26T22:05:19.186Z,6.36
2019-02-26T22:07:52.069Z,6.36
2019-02-26T22:10:22.443Z,6.15
2019-02-26T22:12:50.978Z,6.36
2019-02-26T22:15:19.474Z,6.26
2019-02-26T22:17:47.985Z,6.23
2019-02-26T22:20:35.539Z,6.30
2019-02-26T22:22:50.290Z,6.14
2019-02-26T22:25:18.894Z,6.26
2019-02-26T22:27:47.427Z,6.36
2019-02-26T22:30:21.463Z,6.38
2019-02-26T22:32:47.479Z,6.36
2019-02-26T22:35:15.976Z,6.36
2019-02-26T22:37:44.515Z,6.32
2019-02-26T22:40:14.017Z,6.50
2019-02-26T22:42:42.531Z,6.29
2019-02-26T22:45:13.486Z,6.33
2019-02-26T22:47:43.918Z,6.32
2019-02-26T22:50:14.328Z,6.32
2019-02-26T22:52:43.627Z,6.26
2019-02-26T22:55:17.172Z,6.23
2019-02-26T22:57:45.805Z,6.28
2019-02-26T23:00:27.993Z,6.27
2019-02-26T23:02:56.496Z,6.35
2019-02-26T23:05:25.638Z,6.32
2019-02-26T23:07:54.635Z,6.22
2019-02-26T23:10:24.729Z,6.22
2019-02-26T23:12:53.358Z,6.30
2019-02-26T23:15:21.870Z,6.29
2019-02-26T23:17:50.368Z,6.26
2019-02-26T23:20:18.927Z,6.27
2019-02-26T23:22:47.410Z,6.24
2019-02-26T23:25:16.003Z,6.25
2019-02-26T23:27:46.036Z,6.26
2019-02-26T23:30:14.934Z,6.27
2019-02-26T23:32:43.493Z,6.26
2019-02-26T23:35:14.152Z,6.24
2019-02-26T23:37:42.679Z,6.23
2019-02-26T23:40:12.062Z,6.16
2019-02-26T23:42:40.562Z,6.19
2019-02-26T23:45:10.801Z,6.18
2019-02-26T23:47:39.299Z,6.19
2019-02-26T23:50:09.401Z,6.23
2019-02-26T23:52:37.910Z,6.19
2019-02-26T23:55:08.009Z,6.20
2019-02-26T23:57:36.558Z,6.23
